createdAt,value
2023-02-12T00:00:07.768Z,15.33
2023-02-12T00:00:19.731Z,15.35
2023-02-12T00:00:30.744Z,15.35
2023-02-12T00:00:41.748Z,15.35
2023-02-12T00:00:52.732Z,15.33
2023-02-12T00:01:04.743Z,15.35
2023-02-12T00:01:15.727Z,15.33
2023-02-12T00:01:26.748Z,15.33
2023-02-12T00:01:37.733Z,15.33
2023-02-12T00:01:48.741Z,15.35
2023-02-12T00:01:59.774Z,15.35
2023-02-12T00:02:11.766Z,15.33
2023-02-12T00:02:22.861Z,15.33
2023-02-12T00:02:34.804Z,15.33
2023-02-12T00:02:46.763Z,15.33
2023-02-12T00:02:57.751Z,15.33
2023-02-12T00:03:08.801Z,15.35
2023-02-12T00:03:19.768Z,15.33
2023-02-12T00:03:30.823Z,15.33
2023-02-12T00:03:42.845Z,15.33
2023-02-12T00:03:53.852Z,15.36
2023-02-12T00:04:05.755Z,15.33
2023-02-12T00:04:16.759Z,15.33
2023-02-12T00:04:27.754Z,15.35
2023-02-12T00:04:38.759Z,15.33
2023-02-12T00:04:49.749Z,15.35
2023-02-12T00:05:00.740Z,15.35
2023-02-12T00:05:11.747Z,15.35
2023-02-12T00:05:23.732Z,15.33
2023-02-12T00:05:34.733Z,15.35
2023-02-12T00:05:45.709Z,15.35
2023-02-12T00:05:56.937Z,15.35
2023-02-12T00:06:07.784Z,15.33
2023-02-12T00:06:19.753Z,15.33
2023-02-12T00:06:30.760Z,15.33
2023-02-12T00:06:42.718Z,15.33
2023-02-12T00:06:53.714Z,15.35
2023-02-12T00:07:04.720Z,15.33
2023-02-12T00:07:15.715Z,15.33
2023-02-12T00:07:26.716Z,15.33
2023-02-12T00:07:37.700Z,15.33
2023-02-12T00:07:48.702Z,15.33
2023-02-12T00:07:59.720Z,15.35
2023-02-12T00:08:10.704Z,15.33
2023-02-12T00:08:21.705Z,15.33
2023-02-12T00:08:32.700Z,15.33
2023-02-12T00:08:43.706Z,15.35
2023-02-12T00:08:54.715Z,15.33
2023-02-12T00:09:05.694Z,15.33
2023-02-12T00:09:16.700Z,15.33
2023-02-12T00:09:27.788Z,15.33
2023-02-12T00:09:39.752Z,15.33
2023-02-12T00:09:50.762Z,15.35
2023-02-12T00:10:02.735Z,15.33
2023-02-12T00:10:13.745Z,15.35
2023-02-12T00:10:24.734Z,15.33
2023-02-12T00:10:35.717Z,15.35
2023-02-12T00:10:46.715Z,15.35
2023-02-12T00:10:57.725Z,15.33
2023-02-12T00:11:08.719Z,15.35
2023-02-12T00:11:19.719Z,15.36
2023-02-12T00:11:30.722Z,15.33
2023-02-12T00:11:41.721Z,15.33
2023-02-12T00:11:52.708Z,15.33
2023-02-12T00:12:03.700Z,15.33
2023-02-12T00:12:14.719Z,15.33
2023-02-12T00:12:25.729Z,15.33
2023-02-12T00:12:36.727Z,15.35
2023-02-12T00:12:47.722Z,15.35
2023-02-12T00:12:58.729Z,15.33
2023-02-12T00:13:09.752Z,15.35
2023-02-12T00:13:21.746Z,15.33
2023-02-12T00:13:32.785Z,15.33
2023-02-12T00:13:44.732Z,15.35
2023-02-12T00:13:55.721Z,15.35
2023-02-12T00:14:06.732Z,15.35
2023-02-12T00:14:17.733Z,15.33
2023-02-12T00:14:29.722Z,15.33
2023-02-12T00:14:40.717Z,15.33
2023-02-12T00:14:51.714Z,15.35
2023-02-12T00:15:02.728Z,15.35
2023-02-12T00:15:13.740Z,15.35
2023-02-12T00:15:24.758Z,15.35
2023-02-12T00:15:36.757Z,15.33
2023-02-12T00:15:47.819Z,15.35
2023-02-12T00:15:59.068Z,15.35
2023-02-12T00:16:10.770Z,15.33
2023-02-12T00:16:22.767Z,15.35
2023-02-12T00:16:34.743Z,15.35
2023-02-12T00:16:45.756Z,15.35
2023-02-12T00:16:57.737Z,15.35
2023-02-12T00:17:08.742Z,15.33
2023-02-12T00:17:19.752Z,15.35
2023-02-12T00:17:30.746Z,15.35
2023-02-12T00:17:42.739Z,15.33
2023-02-12T00:17:53.749Z,15.35
2023-02-12T00:18:04.749Z,15.33
2023-02-12T00:18:15.748Z,15.35
2023-02-12T00:18:26.744Z,15.35
2023-02-12T00:18:37.759Z,15.33
2023-02-12T00:18:49.715Z,15.31
2023-02-12T00:19:00.745Z,15.35
2023-02-12T00:19:11.733Z,15.35
2023-02-12T00:19:22.738Z,15.33
2023-02-12T00:19:33.744Z,15.35
2023-02-12T00:19:44.753Z,15.33
2023-02-12T00:19:56.737Z,15.33
2023-02-12T00:20:07.732Z,15.35
2023-02-12T00:20:18.755Z,15.33
2023-02-12T00:20:30.726Z,15.33
2023-02-12T00:20:41.738Z,15.33
2023-02-12T00:20:52.737Z,15.35
2023-02-12T00:21:03.728Z,15.33
2023-02-12T00:21:14.755Z,15.33
2023-02-12T00:21:25.790Z,15.35
2023-02-12T00:21:36.716Z,15.33
2023-02-12T00:21:47.720Z,15.33
2023-02-12T00:21:58.722Z,15.33
2023-02-12T00:22:09.734Z,15.31
2023-02-12T00:22:20.739Z,15.33
2023-02-12T00:22:31.732Z,15.33
2023-02-12T00:22:42.722Z,15.33
2023-02-12T00:22:53.723Z,15.33
2023-02-12T00:23:04.719Z,15.31
2023-02-12T00:23:15.718Z,15.33
2023-02-12T00:23:26.707Z,15.35
2023-02-12T00:23:37.717Z,15.33
2023-02-12T00:23:48.704Z,15.33
2023-02-12T00:23:59.712Z,15.33
2023-02-12T00:24:10.708Z,15.33
2023-02-12T00:24:21.702Z,15.33
2023-02-12T00:24:32.790Z,15.33
2023-02-12T00:24:44.754Z,15.35
2023-02-12T00:24:56.729Z,15.33
2023-02-12T00:25:07.726Z,15.35
2023-02-12T00:25:18.716Z,15.33
2023-02-12T00:25:29.698Z,15.33
2023-02-12T00:25:40.725Z,15.35
2023-02-12T00:25:51.730Z,15.33
2023-02-12T00:26:03.731Z,15.36
2023-02-12T00:26:14.738Z,15.33
2023-02-12T00:26:25.768Z,15.35
2023-02-12T00:26:37.730Z,15.35
2023-02-12T00:26:48.729Z,15.35
2023-02-12T00:26:59.761Z,15.33
2023-02-12T00:27:11.728Z,15.33
2023-02-12T00:27:22.721Z,15.35
2023-02-12T00:27:33.751Z,15.35
2023-02-12T00:27:44.748Z,15.35
2023-02-12T00:27:56.807Z,15.35
2023-02-12T00:28:07.748Z,15.33
2023-02-12T00:28:18.769Z,15.35
2023-02-12T00:28:29.787Z,15.35
2023-02-12T00:28:40.791Z,15.35
2023-02-12T00:28:52.758Z,15.35
2023-02-12T00:29:04.735Z,15.35
2023-02-12T00:29:15.698Z,15.33
2023-02-12T00:29:26.793Z,15.35
2023-02-12T00:29:38.707Z,15.33
2023-02-12T00:29:49.766Z,15.35
2023-02-12T00:30:01.745Z,15.35
2023-02-12T00:30:12.744Z,15.36
2023-02-12T00:30:23.795Z,15.35
2023-02-12T00:30:35.806Z,15.36
2023-02-12T00:30:47.841Z,15.33
2023-02-12T00:30:59.771Z,15.35
2023-02-12T00:31:10.935Z,15.35
2023-02-12T00:31:22.945Z,15.35
2023-02-12T00:31:34.828Z,15.36
2023-02-12T00:31:46.785Z,15.35
2023-02-12T00:31:57.730Z,15.35
2023-02-12T00:32:08.765Z,15.35
2023-02-12T00:32:20.734Z,15.33
2023-02-12T00:32:31.745Z,15.33
2023-02-12T00:32:42.761Z,15.35
2023-02-12T00:32:53.752Z,15.36
2023-02-12T00:33:04.767Z,15.33
2023-02-12T00:33:16.742Z,15.35
2023-02-12T00:33:27.739Z,15.35
2023-02-12T00:33:38.727Z,15.35
2023-02-12T00:33:49.720Z,15.35
2023-02-12T00:34:00.738Z,15.35
2023-02-12T00:34:11.783Z,15.35
2023-02-12T00:34:22.735Z,15.35
2023-02-12T00:34:33.732Z,15.35
2023-02-12T00:34:44.770Z,15.36
2023-02-12T00:34:56.732Z,15.35
2023-02-12T00:35:07.733Z,15.35
2023-02-12T00:35:18.746Z,15.35
2023-02-12T00:35:30.735Z,15.36
2023-02-12T00:35:41.734Z,15.35
2023-02-12T00:35:53.080Z,15.35
2023-02-12T00:36:03.734Z,15.33
2023-02-12T00:36:15.730Z,15.36
2023-02-12T00:36:26.729Z,15.36
2023-02-12T00:36:37.734Z,15.35
2023-02-12T00:36:48.731Z,15.35
2023-02-12T00:36:59.729Z,15.33
2023-02-12T00:37:10.740Z,15.35
2023-02-12T00:37:21.733Z,15.35
2023-02-12T00:37:32.734Z,15.35
2023-02-12T00:37:43.734Z,15.33
2023-02-12T00:37:54.734Z,15.35
2023-02-12T00:38:05.738Z,15.35
2023-02-12T00:38:16.738Z,15.35
2023-02-12T00:38:27.739Z,15.35
2023-02-12T00:38:38.744Z,15.36
2023-02-12T00:38:49.742Z,15.36
2023-02-12T00:39:01.761Z,15.35
2023-02-12T00:39:13.751Z,15.33
2023-02-12T00:39:24.754Z,15.35
2023-02-12T00:39:35.737Z,15.35
2023-02-12T00:39:46.723Z,15.35
2023-02-12T00:39:57.720Z,15.35
2023-02-12T00:40:08.755Z,15.33
2023-02-12T00:40:19.736Z,15.35
2023-02-12T00:40:31.725Z,15.35
2023-02-12T00:40:42.740Z,15.33
2023-02-12T00:40:53.813Z,15.35
2023-02-12T00:41:04.717Z,15.36
2023-02-12T00:41:15.744Z,15.36
2023-02-12T00:41:27.723Z,15.33
2023-02-12T00:41:38.731Z,15.33
2023-02-12T00:41:49.746Z,15.33
2023-02-12T00:42:00.742Z,15.35
2023-02-12T00:42:11.742Z,15.35
2023-02-12T00:42:22.744Z,15.35
2023-02-12T00:42:33.728Z,15.33
2023-02-12T00:42:44.726Z,15.35
2023-02-12T00:42:55.719Z,15.33
2023-02-12T00:43:06.721Z,15.35
2023-02-12T00:43:17.701Z,15.33
2023-02-12T00:43:28.702Z,15.35
2023-02-12T00:43:39.716Z,15.35
2023-02-12T00:43:50.747Z,15.35
2023-02-12T00:44:01.741Z,15.35
2023-02-12T00:44:12.766Z,15.33
2023-02-12T00:44:23.765Z,15.35
2023-02-12T00:44:35.734Z,15.35
2023-02-12T00:44:46.750Z,15.35
2023-02-12T00:44:57.757Z,15.35
2023-02-12T00:45:09.730Z,15.33
2023-02-12T00:45:20.778Z,15.33
2023-02-12T00:45:32.724Z,15.35
2023-02-12T00:45:43.732Z,15.33
2023-02-12T00:45:55.218Z,15.35
2023-02-12T00:46:05.785Z,15.33
2023-02-12T00:46:17.778Z,15.35
2023-02-12T00:46:28.730Z,15.35
2023-02-12T00:46:39.841Z,15.33
2023-02-12T00:46:51.758Z,15.33
2023-02-12T00:47:02.747Z,15.33
2023-02-12T00:47:13.741Z,15.33
2023-02-12T00:47:24.742Z,15.33
2023-02-12T00:47:35.755Z,15.33
2023-02-12T00:47:46.750Z,15.33
2023-02-12T00:47:58.768Z,15.33
2023-02-12T00:48:10.731Z,15.36
2023-02-12T00:48:21.727Z,15.33
2023-02-12T00:48:32.740Z,15.35
2023-02-12T00:48:43.745Z,15.33
2023-02-12T00:48:54.745Z,15.33
2023-02-12T00:49:05.759Z,15.35
2023-02-12T00:49:17.725Z,15.33
2023-02-12T00:49:28.724Z,15.33
2023-02-12T00:49:39.737Z,15.31
2023-02-12T00:49:50.737Z,15.31
2023-02-12T00:50:01.730Z,15.31
2023-02-12T00:50:12.721Z,15.31
2023-02-12T00:50:23.717Z,15.33
2023-02-12T00:50:34.720Z,15.33
2023-02-12T00:50:45.725Z,15.35
2023-02-12T00:50:56.738Z,15.31
2023-02-12T00:51:07.725Z,15.31
2023-02-12T00:51:18.749Z,15.29
2023-02-12T00:51:29.744Z,15.33
2023-02-12T00:51:40.745Z,15.31
2023-02-12T00:51:51.724Z,15.31
2023-02-12T00:52:02.710Z,15.33
2023-02-12T00:52:13.767Z,15.33
2023-02-12T00:52:25.728Z,15.31
2023-02-12T00:52:36.709Z,15.31
2023-02-12T00:52:48.738Z,15.31
2023-02-12T00:52:59.729Z,15.31
2023-02-12T00:53:10.733Z,15.31
2023-02-12T00:53:22.737Z,15.31
2023-02-12T00:53:33.797Z,15.31
2023-02-12T00:53:45.753Z,15.31
2023-02-12T00:53:56.731Z,15.31
2023-02-12T00:54:07.747Z,15.29
2023-02-12T00:54:19.726Z,15.29
2023-02-12T00:54:31.732Z,15.33
2023-02-12T00:54:42.736Z,15.31
2023-02-12T00:54:53.749Z,15.31
2023-02-12T00:55:04.753Z,15.31
2023-02-12T00:55:15.747Z,15.31
2023-02-12T00:55:26.757Z,15.31
2023-02-12T00:55:37.743Z,15.31
2023-02-12T00:55:48.736Z,15.31
2023-02-12T00:55:59.725Z,15.31
2023-02-12T00:56:10.749Z,15.31
2023-02-12T00:56:22.721Z,15.31
2023-02-12T00:56:33.724Z,15.31
2023-02-12T00:56:44.702Z,15.31
2023-02-12T00:56:55.703Z,15.31
2023-02-12T00:57:06.720Z,15.29
2023-02-12T00:57:17.708Z,15.31
2023-02-12T00:57:28.744Z,15.31
2023-02-12T00:57:39.719Z,15.31
2023-02-12T00:57:50.714Z,15.29
2023-02-12T00:58:01.797Z,15.31
2023-02-12T00:58:13.695Z,15.31
2023-02-12T00:58:24.707Z,15.31
2023-02-12T00:58:35.697Z,15.33
2023-02-12T00:58:46.783Z,15.31
2023-02-12T00:58:58.763Z,15.31
2023-02-12T00:59:09.751Z,15.29
2023-02-12T00:59:20.755Z,15.31
2023-02-12T00:59:31.748Z,15.31
2023-02-12T00:59:42.746Z,15.31
2023-02-12T00:59:53.738Z,15.29
2023-02-12T01:00:05.730Z,15.31
2023-02-12T01:00:17.728Z,15.31
2023-02-12T01:00:28.743Z,15.31
2023-02-12T01:00:39.748Z,15.31
2023-02-12T01:00:50.752Z,15.31
2023-02-12T01:01:01.757Z,15.28
2023-02-12T01:01:12.797Z,15.31
2023-02-12T01:01:24.799Z,15.31
2023-02-12T01:01:36.805Z,15.31
2023-02-12T01:01:48.799Z,15.29
2023-02-12T01:02:00.734Z,15.29
2023-02-12T01:02:11.736Z,15.31
2023-02-12T01:02:22.715Z,15.29
2023-02-12T01:02:33.794Z,15.31
2023-02-12T01:02:45.699Z,15.31
2023-02-12T01:02:56.703Z,15.31
2023-02-12T01:03:07.701Z,15.29
2023-02-12T01:03:18.710Z,15.31
2023-02-12T01:03:29.706Z,15.29
2023-02-12T01:03:40.712Z,15.31
2023-02-12T01:03:51.704Z,15.31
2023-02-12T01:04:02.734Z,15.31
2023-02-12T01:04:13.727Z,15.31
2023-02-12T01:04:24.728Z,15.31
2023-02-12T01:04:35.758Z,15.29
2023-02-12T01:04:47.778Z,15.29
2023-02-12T01:04:59.818Z,15.31
2023-02-12T01:05:10.816Z,15.29
2023-02-12T01:05:22.879Z,15.31
2023-02-12T01:05:34.733Z,15.31
2023-02-12T01:05:45.732Z,15.31
2023-02-12T01:05:56.977Z,15.31
2023-02-12T01:06:07.733Z,15.29
2023-02-12T01:06:18.725Z,15.29
2023-02-12T01:06:29.739Z,15.29
2023-02-12T01:06:41.741Z,15.29
2023-02-12T01:06:52.736Z,15.29
2023-02-12T01:07:03.762Z,15.29
2023-02-12T01:07:14.745Z,15.29
2023-02-12T01:07:25.741Z,15.31
2023-02-12T01:07:36.740Z,15.29
2023-02-12T01:07:47.734Z,15.31
2023-02-12T01:07:58.750Z,15.31
2023-02-12T01:08:09.799Z,15.31
2023-02-12T01:08:21.759Z,15.31
2023-02-12T01:08:33.754Z,15.29
2023-02-12T01:08:44.730Z,15.29
2023-02-12T01:08:55.728Z,15.31
2023-02-12T01:09:06.719Z,15.31
2023-02-12T01:09:17.724Z,15.31
2023-02-12T01:09:28.753Z,15.29
2023-02-12T01:09:39.710Z,15.29
2023-02-12T01:09:50.716Z,15.29
2023-02-12T01:10:01.716Z,15.29
2023-02-12T01:10:12.724Z,15.31
2023-02-12T01:10:23.720Z,15.29
2023-02-12T01:10:34.731Z,15.31
2023-02-12T01:10:45.733Z,15.31
2023-02-12T01:10:57.738Z,15.31
2023-02-12T01:11:08.729Z,15.31
2023-02-12T01:11:19.730Z,15.33
2023-02-12T01:11:31.730Z,15.29
2023-02-12T01:11:42.758Z,15.31
2023-02-12T01:11:53.752Z,15.31
2023-02-12T01:12:04.756Z,15.31
2023-02-12T01:12:15.739Z,15.29
2023-02-12T01:12:26.744Z,15.31
2023-02-12T01:12:37.724Z,15.31
2023-02-12T01:12:48.734Z,15.31
2023-02-12T01:12:59.742Z,15.29
2023-02-12T01:13:10.744Z,15.33
2023-02-12T01:13:21.743Z,15.31
2023-02-12T01:13:32.762Z,15.33
2023-02-12T01:13:43.759Z,15.31
2023-02-12T01:13:55.757Z,15.29
2023-02-12T01:14:06.743Z,15.31
2023-02-12T01:14:18.749Z,15.31
2023-02-12T01:14:30.752Z,15.29
2023-02-12T01:14:41.742Z,15.29
2023-02-12T01:14:52.745Z,15.31
2023-02-12T01:15:03.762Z,15.31
2023-02-12T01:15:14.753Z,15.31
2023-02-12T01:15:26.746Z,15.31
2023-02-12T01:15:37.746Z,15.31
2023-02-12T01:15:48.780Z,15.33
2023-02-12T01:15:59.803Z,15.33
2023-02-12T01:16:11.076Z,15.29
2023-02-12T01:16:22.959Z,15.31
2023-02-12T01:16:34.825Z,15.31
2023-02-12T01:16:46.789Z,15.33
2023-02-12T01:16:58.765Z,15.33
2023-02-12T01:17:10.741Z,15.31
2023-02-12T01:17:21.733Z,15.31
2023-02-12T01:17:32.761Z,15.31
2023-02-12T01:17:44.737Z,15.31
2023-02-12T01:17:56.746Z,15.33
2023-02-12T01:18:08.737Z,15.33
2023-02-12T01:18:20.734Z,15.31
2023-02-12T01:18:31.729Z,15.31
2023-02-12T01:18:42.751Z,15.33
2023-02-12T01:18:55.824Z,15.31
2023-02-12T01:19:05.744Z,15.31
2023-02-12T01:19:16.744Z,15.31
2023-02-12T01:19:27.738Z,15.31
2023-02-12T01:19:38.752Z,15.33
2023-02-12T01:19:49.747Z,15.31
2023-02-12T01:20:00.749Z,15.29
2023-02-12T01:20:11.745Z,15.29
2023-02-12T01:20:22.736Z,15.29
2023-02-12T01:20:33.723Z,15.31
2023-02-12T01:20:44.821Z,15.31
2023-02-12T01:20:56.768Z,15.31
2023-02-12T01:21:08.731Z,15.33
2023-02-12T01:21:19.744Z,15.31
2023-02-12T01:21:30.738Z,15.29
2023-02-12T01:21:41.733Z,15.31
2023-02-12T01:21:52.737Z,15.31
2023-02-12T01:22:03.750Z,15.31
2023-02-12T01:22:14.761Z,15.33
2023-02-12T01:22:25.758Z,15.31
2023-02-12T01:22:37.745Z,15.31
2023-02-12T01:22:48.742Z,15.29
2023-02-12T01:22:59.756Z,15.33
2023-02-12T01:23:10.755Z,15.31
2023-02-12T01:23:21.756Z,15.31
2023-02-12T01:23:32.747Z,15.31
2023-02-12T01:23:43.777Z,15.33
2023-02-12T01:23:55.765Z,15.33
2023-02-12T01:24:07.750Z,15.33
2023-02-12T01:24:18.744Z,15.31
2023-02-12T01:24:30.722Z,15.31
2023-02-12T01:24:41.707Z,15.31
2023-02-12T01:24:52.795Z,15.33
2023-02-12T01:25:04.789Z,15.29
2023-02-12T01:25:19.321Z,15.31
2023-02-12T01:25:27.752Z,15.31
2023-02-12T01:25:38.769Z,15.31
2023-02-12T01:25:50.742Z,15.31
2023-02-12T01:26:01.734Z,15.31
2023-02-12T01:26:12.727Z,15.33
2023-02-12T01:26:23.736Z,15.33
2023-02-12T01:26:34.732Z,15.33
2023-02-12T01:26:45.740Z,15.31
2023-02-12T01:26:56.722Z,15.31
2023-02-12T01:27:07.722Z,15.31
2023-02-12T01:27:18.744Z,15.31
2023-02-12T01:27:29.785Z,15.31
2023-02-12T01:27:41.755Z,15.29
2023-02-12T01:27:52.755Z,15.33
2023-02-12T01:28:03.754Z,15.31
2023-02-12T01:28:14.780Z,15.29
2023-02-12T01:28:26.806Z,15.31
2023-02-12T01:28:37.768Z,15.31
2023-02-12T01:28:48.757Z,15.29
2023-02-12T01:28:59.757Z,15.29
2023-02-12T01:29:10.752Z,15.29
2023-02-12T01:29:21.736Z,15.33
2023-02-12T01:29:32.734Z,15.31
2023-02-12T01:29:43.738Z,15.29
2023-02-12T01:29:55.750Z,15.29
2023-02-12T01:30:06.745Z,15.29
2023-02-12T01:30:17.740Z,15.31
2023-02-12T01:30:28.749Z,15.29
2023-02-12T01:30:39.745Z,15.29
2023-02-12T01:30:50.836Z,15.29
2023-02-12T01:31:01.891Z,15.29
2023-02-12T01:31:12.811Z,15.29
2023-02-12T01:31:23.882Z,15.31
2023-02-12T01:31:34.844Z,15.31
2023-02-12T01:31:45.884Z,15.29
2023-02-12T01:31:57.868Z,15.29
2023-02-12T01:32:09.801Z,15.29
2023-02-12T01:32:21.808Z,15.28
2023-02-12T01:32:32.753Z,15.31
2023-02-12T01:32:43.769Z,15.31
2023-02-12T01:32:54.737Z,15.29
2023-02-12T01:33:05.728Z,15.27
2023-02-12T01:33:16.730Z,15.31
2023-02-12T01:33:27.729Z,15.31
2023-02-12T01:33:38.729Z,15.28
2023-02-12T01:33:49.722Z,15.29
2023-02-12T01:34:00.751Z,15.29
2023-02-12T01:34:12.742Z,15.29
2023-02-12T01:34:23.760Z,15.29
2023-02-12T01:34:34.733Z,15.28
2023-02-12T01:34:45.802Z,15.31
2023-02-12T01:34:57.764Z,15.31
2023-02-12T01:35:08.743Z,15.28
2023-02-12T01:35:19.749Z,15.29
2023-02-12T01:35:30.743Z,15.28
2023-02-12T01:35:41.745Z,15.29
2023-02-12T01:35:52.960Z,15.28
2023-02-12T01:36:04.733Z,15.28
2023-02-12T01:36:15.743Z,15.28
2023-02-12T01:36:26.805Z,15.29
2023-02-12T01:36:38.775Z,15.28
2023-02-12T01:36:50.749Z,15.29
2023-02-12T01:37:01.741Z,15.29
2023-02-12T01:37:12.735Z,15.28
2023-02-12T01:37:23.722Z,15.29
2023-02-12T01:37:34.726Z,15.28
2023-02-12T01:37:45.724Z,15.28
2023-02-12T01:37:58.339Z,15.28
2023-02-12T01:38:07.706Z,15.29
2023-02-12T01:38:18.706Z,15.29
2023-02-12T01:38:29.711Z,15.28
2023-02-12T01:38:40.708Z,15.28
2023-02-12T01:38:51.716Z,15.28
2023-02-12T01:39:02.728Z,15.28
2023-02-12T01:39:13.793Z,15.28
2023-02-12T01:39:25.746Z,15.29
2023-02-12T01:39:36.739Z,15.28
2023-02-12T01:39:47.744Z,15.29
2023-02-12T01:39:58.743Z,15.29
2023-02-12T01:40:09.748Z,15.28
2023-02-12T01:40:20.767Z,15.29
2023-02-12T01:40:31.763Z,15.29
2023-02-12T01:40:43.747Z,15.29
2023-02-12T01:40:55.733Z,15.28
2023-02-12T01:41:06.733Z,15.29
2023-02-12T01:41:17.728Z,15.28
2023-02-12T01:41:28.723Z,15.27
2023-02-12T01:41:39.706Z,15.28
2023-02-12T01:41:50.704Z,15.28
2023-02-12T01:42:01.705Z,15.28
2023-02-12T01:42:12.769Z,15.28
2023-02-12T01:42:24.791Z,15.28
2023-02-12T01:42:36.747Z,15.29
2023-02-12T01:42:47.753Z,15.29
2023-02-12T01:42:58.748Z,15.29
2023-02-12T01:43:10.756Z,15.29
2023-02-12T01:43:21.755Z,15.31
2023-02-12T01:43:32.753Z,15.28
2023-02-12T01:43:43.748Z,15.28
2023-02-12T01:43:54.753Z,15.29
2023-02-12T01:44:05.774Z,15.29
2023-02-12T01:44:17.727Z,15.28
2023-02-12T01:44:28.740Z,15.29
2023-02-12T01:44:39.727Z,15.31
2023-02-12T01:44:50.734Z,15.28
2023-02-12T01:45:01.750Z,15.29
2023-02-12T01:45:12.747Z,15.28
2023-02-12T01:45:24.716Z,15.28
2023-02-12T01:45:35.718Z,15.29
2023-02-12T01:45:46.768Z,15.29
2023-02-12T01:45:58.762Z,15.29
2023-02-12T01:46:10.749Z,15.31
2023-02-12T01:46:21.792Z,15.29
2023-02-12T01:46:32.887Z,15.29
2023-02-12T01:46:44.866Z,15.29
2023-02-12T01:46:56.748Z,15.29
2023-02-12T01:47:07.757Z,15.29
2023-02-12T01:47:18.756Z,15.28
2023-02-12T01:47:29.750Z,15.29
2023-02-12T01:47:40.764Z,15.28
2023-02-12T01:47:51.758Z,15.29
2023-02-12T01:48:03.750Z,15.29
2023-02-12T01:48:14.762Z,15.29
2023-02-12T01:48:25.761Z,15.29
2023-02-12T01:48:36.743Z,15.29
2023-02-12T01:48:47.751Z,15.29
2023-02-12T01:48:58.758Z,15.29
2023-02-12T01:49:10.749Z,15.29
2023-02-12T01:49:21.736Z,15.29
2023-02-12T01:49:32.734Z,15.28
2023-02-12T01:49:43.727Z,15.28
2023-02-12T01:49:54.743Z,15.29
2023-02-12T01:50:05.742Z,15.29
2023-02-12T01:50:16.758Z,15.28
2023-02-12T01:50:27.764Z,15.28
2023-02-12T01:50:39.733Z,15.29
2023-02-12T01:50:50.743Z,15.29
2023-02-12T01:51:01.739Z,15.29
2023-02-12T01:51:12.736Z,15.29
2023-02-12T01:51:23.737Z,15.28
2023-02-12T01:51:34.732Z,15.29
2023-02-12T01:51:45.755Z,15.29
2023-02-12T01:51:56.754Z,15.28
2023-02-12T01:52:07.722Z,15.29
2023-02-12T01:52:18.712Z,15.28
2023-02-12T01:52:29.715Z,15.29
2023-02-12T01:52:40.727Z,15.29
2023-02-12T01:52:51.733Z,15.29
2023-02-12T01:53:02.727Z,15.29
2023-02-12T01:53:13.725Z,15.31
2023-02-12T01:53:24.743Z,15.29
2023-02-12T01:53:35.745Z,15.29
2023-02-12T01:53:46.726Z,15.28
2023-02-12T01:53:57.735Z,15.29
2023-02-12T01:54:08.757Z,15.29
2023-02-12T01:54:19.757Z,15.29
2023-02-12T01:54:31.732Z,15.31
2023-02-12T01:54:42.736Z,15.29
2023-02-12T01:54:56.221Z,15.29
2023-02-12T01:55:05.733Z,15.29
2023-02-12T01:55:16.721Z,15.29
2023-02-12T01:55:27.730Z,15.29
2023-02-12T01:55:38.721Z,15.29
2023-02-12T01:55:49.719Z,15.29
2023-02-12T01:56:00.709Z,15.31
2023-02-12T01:56:11.722Z,15.29
2023-02-12T01:56:22.751Z,15.31
2023-02-12T01:56:33.757Z,15.31
2023-02-12T01:56:44.746Z,15.29
2023-02-12T01:56:55.731Z,15.28
2023-02-12T01:57:06.732Z,15.29
2023-02-12T01:57:17.714Z,15.29
2023-02-12T01:57:28.798Z,15.29
2023-02-12T01:57:40.813Z,15.29
2023-02-12T01:57:52.786Z,15.31
2023-02-12T01:58:04.746Z,15.29
2023-02-12T01:58:15.731Z,15.29
2023-02-12T01:58:27.734Z,15.29
2023-02-12T01:58:38.738Z,15.29
2023-02-12T01:58:49.753Z,15.29
2023-02-12T01:59:00.753Z,15.28
2023-02-12T01:59:11.766Z,15.29
2023-02-12T01:59:22.749Z,15.29
2023-02-12T01:59:33.734Z,15.29
2023-02-12T01:59:44.767Z,15.29
2023-02-12T01:59:56.735Z,15.28
2023-02-12T02:00:08.729Z,15.29
2023-02-12T02:00:19.718Z,15.31
2023-02-12T02:00:30.722Z,15.29
2023-02-12T02:00:41.708Z,15.28
2023-02-12T02:00:52.708Z,15.29
2023-02-12T02:01:03.709Z,15.29
2023-02-12T02:01:14.763Z,15.29
2023-02-12T02:01:25.851Z,15.29
2023-02-12T02:01:37.840Z,15.29
2023-02-12T02:01:48.824Z,15.31
2023-02-12T02:01:59.816Z,15.29
2023-02-12T02:02:10.747Z,15.29
2023-02-12T02:02:21.747Z,15.29
2023-02-12T02:02:32.751Z,15.31
2023-02-12T02:02:44.754Z,15.29
2023-02-12T02:02:55.789Z,15.31
2023-02-12T02:03:07.812Z,15.29
2023-02-12T02:03:18.742Z,15.31
2023-02-12T02:03:30.740Z,15.31
2023-02-12T02:03:41.739Z,15.29
2023-02-12T02:03:52.750Z,15.31
2023-02-12T02:04:03.743Z,15.29
2023-02-12T02:04:14.741Z,15.29
2023-02-12T02:04:25.776Z,15.28
2023-02-12T02:04:37.734Z,15.29
2023-02-12T02:04:48.743Z,15.28
2023-02-12T02:04:59.758Z,15.29
2023-02-12T02:05:10.756Z,15.28
2023-02-12T02:05:21.753Z,15.28
2023-02-12T02:05:33.731Z,15.29
2023-02-12T02:05:44.727Z,15.29
2023-02-12T02:05:55.964Z,15.29
2023-02-12T02:06:06.797Z,15.29
2023-02-12T02:06:18.760Z,15.29
2023-02-12T02:06:29.715Z,15.29
2023-02-12T02:06:40.753Z,15.29
2023-02-12T02:06:51.739Z,15.29
2023-02-12T02:07:02.732Z,15.29
2023-02-12T02:07:13.734Z,15.31
2023-02-12T02:07:24.732Z,15.29
2023-02-12T02:07:35.729Z,15.28
2023-02-12T02:07:46.738Z,15.29
2023-02-12T02:07:57.762Z,15.31
2023-02-12T02:08:08.753Z,15.29
2023-02-12T02:08:20.737Z,15.31
2023-02-12T02:08:31.715Z,15.28
2023-02-12T02:08:42.799Z,15.29
2023-02-12T02:08:54.768Z,15.29
2023-02-12T02:09:05.791Z,15.31
2023-02-12T02:09:17.748Z,15.29
2023-02-12T02:09:28.753Z,15.29
2023-02-12T02:09:39.735Z,15.28
2023-02-12T02:09:50.733Z,15.29
2023-02-12T02:10:01.771Z,15.29
2023-02-12T02:10:13.716Z,15.28
2023-02-12T02:10:24.720Z,15.29
2023-02-12T02:10:35.722Z,15.29
2023-02-12T02:10:46.725Z,15.29
2023-02-12T02:10:57.717Z,15.28
2023-02-12T02:11:08.711Z,15.28
2023-02-12T02:11:19.713Z,15.28
2023-02-12T02:11:30.727Z,15.29
2023-02-12T02:11:41.716Z,15.29
2023-02-12T02:11:52.755Z,15.28
2023-02-12T02:12:03.796Z,15.29
2023-02-12T02:12:15.760Z,15.28
2023-02-12T02:12:26.763Z,15.29
2023-02-12T02:12:37.756Z,15.29
2023-02-12T02:12:48.744Z,15.29
2023-02-12T02:12:59.750Z,15.28
2023-02-12T02:13:10.746Z,15.28
2023-02-12T02:13:21.759Z,15.28
2023-02-12T02:13:33.741Z,15.29
2023-02-12T02:13:44.733Z,15.29
2023-02-12T02:13:55.724Z,15.28
2023-02-12T02:14:06.711Z,15.29
2023-02-12T02:14:17.717Z,15.28
2023-02-12T02:14:28.715Z,15.29
2023-02-12T02:14:39.709Z,15.28
2023-02-12T02:14:50.709Z,15.29
2023-02-12T02:15:01.730Z,15.28
2023-02-12T02:15:12.736Z,15.28
2023-02-12T02:15:23.746Z,15.28
2023-02-12T02:15:34.748Z,15.28
2023-02-12T02:15:45.789Z,15.29
2023-02-12T02:15:57.218Z,15.28
2023-02-12T02:16:08.772Z,15.27
2023-02-12T02:16:20.807Z,15.28
2023-02-12T02:16:32.845Z,15.28
2023-02-12T02:16:43.747Z,15.27
2023-02-12T02:16:54.756Z,15.28
2023-02-12T02:17:05.748Z,15.28
2023-02-12T02:17:17.754Z,15.28
2023-02-12T02:17:28.746Z,15.28
2023-02-12T02:17:40.755Z,15.27
2023-02-12T02:17:51.757Z,15.28
2023-02-12T02:18:02.776Z,15.27
2023-02-12T02:18:13.716Z,15.28
2023-02-12T02:18:25.744Z,15.27
2023-02-12T02:18:37.728Z,15.27
2023-02-12T02:18:48.730Z,15.28
2023-02-12T02:18:59.735Z,15.27
2023-02-12T02:19:10.736Z,15.28
2023-02-12T02:19:21.732Z,15.27
2023-02-12T02:19:32.746Z,15.28
2023-02-12T02:19:43.745Z,15.29
2023-02-12T02:19:55.743Z,15.27
2023-02-12T02:20:07.751Z,15.28
2023-02-12T02:20:18.754Z,15.27
2023-02-12T02:20:29.760Z,15.28
2023-02-12T02:20:41.735Z,15.27
2023-02-12T02:20:52.733Z,15.28
2023-02-12T02:21:03.723Z,15.27
2023-02-12T02:21:15.731Z,15.28
2023-02-12T02:21:26.719Z,15.27
2023-02-12T02:21:37.746Z,15.28
2023-02-12T02:21:48.735Z,15.28
2023-02-12T02:21:59.744Z,15.27
2023-02-12T02:22:11.732Z,15.27
2023-02-12T02:22:22.741Z,15.28
2023-02-12T02:22:33.737Z,15.27
2023-02-12T02:22:45.739Z,15.27
2023-02-12T02:22:56.756Z,15.27
2023-02-12T02:23:08.742Z,15.27
2023-02-12T02:23:19.742Z,15.27
2023-02-12T02:23:30.746Z,15.28
2023-02-12T02:23:41.757Z,15.28
2023-02-12T02:23:53.762Z,15.27
2023-02-12T02:24:04.761Z,15.28
2023-02-12T02:24:16.729Z,15.28
2023-02-12T02:24:27.720Z,15.25